KFFO/FFO METAR and TAF weather

Enter ICAO airport designator
Station Type Date Time Source
KFFO METAR 2022/12/04 03:55 UTC NOAA

KFFO 040355Z 00000KT 10SM CLR M04/M08 A3039 RMK AO2A SLP303 T10401078


Station Type Date Time Source
KFFO Decoded METAR 2022/12/04 03:55 UTC NOAA

Dayton / Wright-Patterson Air Force Base, OH, United States (KFFO) 39-50N 084-03W 251M
Dec 03, 2022 - 10:55 PM EST / 2022.12.04 0355 UTC
Wind: Calm:0
Visibility: 10 mile(s):0
Sky conditions: clear
Temperature: 24.8 F (-4.0 C)
Dew Point: 18.0 F (-7.8 C)
Relative Humidity: 74%
Pressure (altimeter): 30.39 in. Hg (1029 hPa)
ob: KFFO 040355Z 00000KT 10SM CLR M04/M08 A3039 RMK AO2A SLP303 T10401078
cycle: 4

Station Type Date Time Source
KFFO TAF 2022/12/04 03:09 UTC NOAA

TAF KFFO 040300Z 0403/0509 29009KT 9999 SCT250 QNH3030INS
BECMG 0412/0414 22009KT 9999 FEW250 QNH3006INS
BECMG 0508/0509 17009KT 9999 FEW150 BKN250 QNH3004INS TX05/0420Z TNM07/0412Z

Example: see airport list